createdAt,value
2018-12-31T00:01:19.050Z,17.60
2018-12-31T00:03:45.136Z,18.00
2018-12-31T00:06:11.170Z,18.57
2018-12-31T00:08:37.216Z,18.70
2018-12-31T00:11:03.199Z,19.37
2018-12-31T00:13:30.361Z,17.60
2018-12-31T00:15:56.390Z,17.70
2018-12-31T00:18:22.739Z,19.20
2018-12-31T00:20:48.742Z,18.80
2018-12-31T00:23:14.854Z,17.30
2018-12-31T00:25:40.864Z,19.90
2018-12-31T00:28:06.942Z,19.60
2018-12-31T00:30:32.944Z,22.60
2018-12-31T00:33:00.048Z,20.07
2018-12-31T00:35:26.036Z,19.23
2018-12-31T00:37:53.098Z,20.80
2018-12-31T00:40:19.086Z,23.53
2018-12-31T00:42:45.171Z,20.63
2018-12-31T00:45:11.204Z,19.97
2018-12-31T00:47:37.236Z,20.73
2018-12-31T00:50:03.669Z,20.40
2018-12-31T00:52:29.916Z,21.33
2018-12-31T00:54:55.946Z,20.90
2018-12-31T00:57:21.988Z,21.20
2018-12-31T00:59:48.014Z,19.80
2018-12-31T01:02:14.047Z,22.30
2018-12-31T01:04:40.129Z,20.40
2018-12-31T01:07:06.147Z,20.97
2018-12-31T01:09:32.188Z,19.57
2018-12-31T01:11:58.207Z,18.53
2018-12-31T01:14:25.258Z,21.20
2018-12-31T01:16:51.273Z,20.10
2018-12-31T01:19:17.313Z,19.73
2018-12-31T01:21:43.317Z,19.77
2018-12-31T01:24:09.314Z,21.37
2018-12-31T01:26:35.337Z,18.77
2018-12-31T01:29:01.460Z,19.73
2018-12-31T01:31:27.464Z,20.90
2018-12-31T01:33:53.864Z,21.40
2018-12-31T01:36:20.177Z,19.93
2018-12-31T01:38:46.199Z,20.73
2018-12-31T01:41:12.219Z,19.67
2018-12-31T01:43:38.277Z,21.30
2018-12-31T01:46:04.255Z,19.40
2018-12-31T01:48:30.308Z,21.17
2018-12-31T01:50:56.496Z,19.53
2018-12-31T01:53:22.504Z,20.50
2018-12-31T01:55:50.606Z,20.03
2018-12-31T01:58:16.880Z,22.00
2018-12-31T02:00:42.968Z,22.63
2018-12-31T02:03:08.995Z,20.30
2018-12-31T02:05:34.995Z,19.37
2018-12-31T02:08:01.045Z,20.47
2018-12-31T02:10:27.052Z,20.93
2018-12-31T02:12:53.039Z,19.50
2018-12-31T02:15:19.066Z,20.83
2018-12-31T02:17:45.108Z,20.70
2018-12-31T02:20:11.182Z,19.93
2018-12-31T02:22:37.263Z,21.37
2018-12-31T02:25:03.387Z,18.20
2018-12-31T02:27:29.458Z,19.60
2018-12-31T02:29:55.471Z,20.00
2018-12-31T02:32:21.535Z,19.40
2018-12-31T02:34:47.544Z,20.03
2018-12-31T02:37:16.374Z,20.63
2018-12-31T02:39:42.420Z,20.83
2018-12-31T02:42:08.460Z,18.93
2018-12-31T02:44:34.577Z,19.17
2018-12-31T02:47:00.558Z,20.70
2018-12-31T02:49:26.597Z,20.13
2018-12-31T02:51:52.619Z,19.60
2018-12-31T02:54:18.672Z,18.20
2018-12-31T02:56:44.773Z,18.43
2018-12-31T02:59:12.816Z,19.90
2018-12-31T03:01:38.837Z,18.70
2018-12-31T03:04:05.982Z,19.50
2018-12-31T03:06:31.978Z,19.90
2018-12-31T03:08:58.198Z,18.70
2018-12-31T03:11:24.162Z,19.10
2018-12-31T03:13:50.196Z,17.13
2018-12-31T03:16:16.203Z,19.00
2018-12-31T03:18:43.277Z,21.57
2018-12-31T03:21:09.316Z,19.70
2018-12-31T03:23:35.350Z,18.43
2018-12-31T03:26:01.420Z,18.97
2018-12-31T03:28:27.473Z,18.03
2018-12-31T03:30:53.493Z,19.43
2018-12-31T03:33:19.487Z,19.00
2018-12-31T03:35:45.617Z,18.03
2018-12-31T03:38:11.611Z,20.10
2018-12-31T03:40:43.446Z,18.80
2018-12-31T03:43:09.455Z,18.27
2018-12-31T03:45:37.540Z,18.43
2018-12-31T03:48:03.560Z,17.80
2018-12-31T03:50:31.696Z,18.20
2018-12-31T03:52:57.705Z,16.27
2018-12-31T03:55:24.984Z,15.93
2018-12-31T03:57:51.052Z,17.70
2018-12-31T04:00:17.090Z,16.37
2018-12-31T04:02:43.161Z,17.80
2018-12-31T04:05:09.226Z,16.77
2018-12-31T04:07:35.313Z,17.07
2018-12-31T04:10:01.377Z,16.30
2018-12-31T04:12:27.394Z,17.17
2018-12-31T04:14:53.442Z,17.60
2018-12-31T04:17:19.418Z,16.00
2018-12-31T04:19:45.462Z,18.10
2018-12-31T04:22:12.578Z,16.47
2018-12-31T04:24:38.615Z,16.67
2018-12-31T04:27:04.727Z,20.43
2018-12-31T04:29:30.726Z,18.33
2018-12-31T04:31:57.823Z,16.20
2018-12-31T04:34:23.845Z,16.60
2018-12-31T04:36:49.948Z,15.77
2018-12-31T04:39:16.252Z,17.83
2018-12-31T04:41:42.367Z,16.83
2018-12-31T04:44:08.421Z,16.03
2018-12-31T04:46:35.538Z,15.67
2018-12-31T04:49:01.581Z,16.77
2018-12-31T04:51:28.604Z,16.23
2018-12-31T04:53:54.583Z,16.73
2018-12-31T04:56:20.705Z,16.37
2018-12-31T04:58:46.740Z,15.37
2018-12-31T05:01:12.830Z,16.07
2018-12-31T05:03:38.858Z,18.13
2018-12-31T05:06:04.909Z,17.30
2018-12-31T05:08:30.871Z,15.27
2018-12-31T05:10:57.851Z,15.30
2018-12-31T05:13:23.832Z,15.03
2018-12-31T05:15:49.867Z,14.90
2018-12-31T05:18:15.843Z,16.50
2018-12-31T05:20:41.868Z,14.63
2018-12-31T05:23:07.909Z,14.70
2018-12-31T05:25:33.903Z,16.00
2018-12-31T05:27:59.923Z,15.80
2018-12-31T05:30:25.959Z,15.40
2018-12-31T05:32:53.706Z,15.87
2018-12-31T05:35:20.046Z,16.47
2018-12-31T05:37:46.042Z,18.23
2018-12-31T05:40:12.049Z,17.30
2018-12-31T05:42:38.245Z,17.30
2018-12-31T05:45:04.219Z,17.57
2018-12-31T05:47:30.303Z,17.77
2018-12-31T05:49:56.367Z,15.93
2018-12-31T05:52:22.465Z,17.73
2018-12-31T05:54:48.522Z,18.20
2018-12-31T05:57:18.377Z,18.60
2018-12-31T05:59:44.407Z,19.77
2018-12-31T06:02:10.545Z,18.10
2018-12-31T06:04:36.591Z,18.23
2018-12-31T06:07:02.729Z,20.20
2018-12-31T06:09:28.755Z,18.77
2018-12-31T06:11:56.835Z,18.70
2018-12-31T06:14:22.833Z,18.77
2018-12-31T06:16:48.881Z,20.57
2018-12-31T06:19:14.925Z,19.23
2018-12-31T06:21:41.044Z,19.43
2018-12-31T06:24:07.027Z,18.50
2018-12-31T06:26:33.089Z,18.73
2018-12-31T06:28:59.196Z,20.30
2018-12-31T06:31:25.256Z,20.83
2018-12-31T06:33:51.244Z,18.97
2018-12-31T06:36:17.630Z,18.37
2018-12-31T06:38:43.655Z,19.70
2018-12-31T06:41:09.708Z,20.30
2018-12-31T06:43:36.793Z,19.40
2018-12-31T06:46:02.832Z,19.53
2018-12-31T06:48:28.883Z,18.13
2018-12-31T06:50:56.347Z,20.53
2018-12-31T06:53:22.606Z,19.37
2018-12-31T06:55:48.684Z,19.97
2018-12-31T06:58:14.707Z,20.40
2018-12-31T07:00:41.807Z,21.27
2018-12-31T07:03:07.872Z,19.83
2018-12-31T07:05:33.901Z,19.83
2018-12-31T07:07:59.990Z,18.13
2018-12-31T07:10:26.078Z,18.30
2018-12-31T07:12:52.171Z,20.23
2018-12-31T07:15:18.184Z,18.53
2018-12-31T07:17:49.394Z,19.33
2018-12-31T07:20:15.358Z,18.70
2018-12-31T07:22:41.501Z,18.97
2018-12-31T07:25:07.535Z,21.73
2018-12-31T07:27:33.716Z,18.87
2018-12-31T07:29:59.942Z,18.80
2018-12-31T07:32:25.991Z,19.90
2018-12-31T07:34:52.064Z,20.07
2018-12-31T07:37:18.176Z,19.70
2018-12-31T07:39:44.249Z,18.33
2018-12-31T07:42:10.405Z,20.97
2018-12-31T07:44:36.410Z,19.50
2018-12-31T07:47:02.509Z,21.30
2018-12-31T07:49:28.608Z,19.73
2018-12-31T07:51:54.827Z,20.40
2018-12-31T07:54:21.859Z,19.17
2018-12-31T07:56:47.983Z,19.50
2018-12-31T07:59:14.165Z,20.20
2018-12-31T08:01:40.315Z,22.10
2018-12-31T08:04:06.321Z,22.10
2018-12-31T08:06:33.589Z,18.70
2018-12-31T08:08:59.718Z,21.67
2018-12-31T08:11:25.739Z,20.60
2018-12-31T08:13:51.770Z,17.30
2018-12-31T08:16:20.189Z,19.37
2018-12-31T08:18:46.245Z,19.90
2018-12-31T08:21:12.275Z,19.60
2018-12-31T08:23:38.396Z,19.50
2018-12-31T08:26:06.298Z,18.40
2018-12-31T08:28:32.381Z,19.80
2018-12-31T08:30:58.848Z,17.73
2018-12-31T08:33:27.114Z,18.70
2018-12-31T08:35:53.093Z,17.07
2018-12-31T08:38:19.215Z,19.17
2018-12-31T08:40:45.333Z,17.40
2018-12-31T08:43:11.385Z,18.57
2018-12-31T08:45:38.562Z,18.10
2018-12-31T08:48:04.636Z,20.13
2018-12-31T08:50:30.846Z,18.73
2018-12-31T08:52:56.952Z,18.90
2018-12-31T08:55:24.153Z,18.20
2018-12-31T08:57:50.193Z,17.67
2018-12-31T09:00:16.178Z,18.90
2018-12-31T09:02:42.227Z,19.50
2018-12-31T09:05:09.557Z,18.80
2018-12-31T09:07:36.654Z,18.60
2018-12-31T09:10:05.767Z,18.53
2018-12-31T09:12:31.865Z,17.70
2018-12-31T09:14:57.859Z,19.10
2018-12-31T09:17:25.969Z,20.03
2018-12-31T09:19:52.074Z,18.07
2018-12-31T09:22:18.125Z,17.40
2018-12-31T09:24:44.719Z,18.80
2018-12-31T09:27:11.029Z,19.50
2018-12-31T09:29:39.125Z,22.47
2018-12-31T09:32:05.116Z,19.03
2018-12-31T09:34:31.442Z,18.60
2018-12-31T09:37:07.741Z,18.70
2018-12-31T09:39:34.416Z,20.10
2018-12-31T09:42:00.570Z,19.00
2018-12-31T09:44:26.557Z,19.63
2018-12-31T09:46:52.994Z,21.23
2018-12-31T09:49:19.078Z,17.77
2018-12-31T09:51:45.359Z,17.83
2018-12-31T09:54:11.576Z,20.57
2018-12-31T09:56:37.582Z,20.07
2018-12-31T09:59:03.786Z,18.50
2018-12-31T10:01:30.090Z,17.73
2018-12-31T10:03:56.201Z,19.10
2018-12-31T10:06:22.327Z,19.70
2018-12-31T10:08:49.282Z,28.70
2018-12-31T10:11:15.717Z,21.20
2018-12-31T10:13:41.897Z,19.60
2018-12-31T10:16:08.023Z,19.23
2018-12-31T10:18:34.107Z,18.20
2018-12-31T10:21:01.979Z,19.30
2018-12-31T10:23:35.753Z,20.10
2018-12-31T10:26:01.819Z,18.87
2018-12-31T10:28:27.845Z,18.03
2018-12-31T10:30:53.827Z,18.97
2018-12-31T10:33:19.822Z,20.17
2018-12-31T10:35:45.937Z,18.50
2018-12-31T10:38:12.072Z,19.27
2018-12-31T10:40:38.121Z,19.03
2018-12-31T10:43:04.206Z,18.60
2018-12-31T10:45:30.295Z,18.60
2018-12-31T10:47:56.368Z,19.13
2018-12-31T10:50:22.598Z,19.00
2018-12-31T10:52:48.679Z,18.33
2018-12-31T10:55:14.715Z,19.63
2018-12-31T10:57:40.803Z,19.73
2018-12-31T11:00:07.658Z,18.17
2018-12-31T11:02:33.821Z,18.00
2018-12-31T11:04:59.835Z,17.10
2018-12-31T11:07:25.835Z,20.37
2018-12-31T11:09:54.004Z,18.00
2018-12-31T11:12:20.035Z,17.47
2018-12-31T11:14:46.116Z,18.50
2018-12-31T11:17:12.254Z,17.53
2018-12-31T11:19:38.248Z,19.13
2018-12-31T11:22:04.352Z,16.13
2018-12-31T11:24:31.948Z,20.20
2018-12-31T11:26:58.099Z,18.97
2018-12-31T11:29:24.472Z,19.10
2018-12-31T11:31:51.583Z,16.67
2018-12-31T11:34:17.677Z,16.87
2018-12-31T11:36:43.860Z,18.10
2018-12-31T11:39:09.922Z,17.53
2018-12-31T11:41:35.950Z,19.10
2018-12-31T11:44:01.999Z,18.70
2018-12-31T11:46:28.049Z,17.10
2018-12-31T11:48:54.554Z,20.07
2018-12-31T11:51:20.816Z,18.40
2018-12-31T11:53:47.216Z,18.47
2018-12-31T11:56:13.510Z,17.17
2018-12-31T11:58:59.689Z,19.20
2018-12-31T12:01:26.157Z,17.87
2018-12-31T12:03:52.740Z,17.53
2018-12-31T12:06:18.909Z,17.10
2018-12-31T12:08:45.099Z,17.23
2018-12-31T12:11:11.600Z,18.93
2018-12-31T12:13:37.998Z,18.00
2018-12-31T12:16:05.889Z,18.47
2018-12-31T12:18:32.999Z,16.30
2018-12-31T12:20:59.052Z,16.87
2018-12-31T12:23:26.256Z,15.40
2018-12-31T12:25:52.617Z,15.30
2018-12-31T12:28:18.617Z,15.83
2018-12-31T12:30:46.759Z,15.80
2018-12-31T12:33:12.976Z,17.27
2018-12-31T12:35:42.737Z,16.33
2018-12-31T12:38:10.038Z,17.70
2018-12-31T12:40:36.079Z,16.13
2018-12-31T12:43:02.098Z,17.60
2018-12-31T12:45:28.151Z,15.90
2018-12-31T12:47:57.206Z,17.43
2018-12-31T12:50:23.318Z,16.13
2018-12-31T12:52:49.307Z,15.30
2018-12-31T12:55:15.714Z,16.53
2018-12-31T12:57:41.773Z,15.67
2018-12-31T13:00:28.022Z,16.60
2018-12-31T13:02:55.118Z,16.40
2018-12-31T13:05:21.569Z,15.70
2018-12-31T13:07:47.600Z,19.90
2018-12-31T13:10:15.058Z,16.87
2018-12-31T13:12:41.404Z,17.33
2018-12-31T13:15:07.398Z,17.70
2018-12-31T13:17:33.490Z,18.00
2018-12-31T13:19:59.855Z,14.37
2018-12-31T13:22:26.005Z,18.27
2018-12-31T13:24:52.073Z,16.63
2018-12-31T13:27:18.532Z,17.07
2018-12-31T13:29:44.585Z,17.50
2018-12-31T13:32:13.034Z,17.70
2018-12-31T13:34:40.727Z,17.80
2018-12-31T13:37:06.731Z,18.70
2018-12-31T13:39:33.883Z,15.90
2018-12-31T13:41:59.930Z,16.60
2018-12-31T13:44:25.920Z,15.03
2018-12-31T13:46:52.105Z,16.10
2018-12-31T13:49:18.533Z,15.30
2018-12-31T13:51:44.692Z,16.57
2018-12-31T13:54:10.758Z,16.87
2018-12-31T13:56:36.851Z,16.67
2018-12-31T13:59:04.623Z,17.90
2018-12-31T14:01:30.943Z,16.07
2018-12-31T14:03:57.458Z,17.33
2018-12-31T14:06:23.484Z,17.13
2018-12-31T14:08:51.518Z,17.33
2018-12-31T14:11:18.158Z,18.23
2018-12-31T14:13:44.279Z,18.77
2018-12-31T14:16:10.360Z,16.83
2018-12-31T14:18:36.869Z,15.80
2018-12-31T14:21:03.945Z,18.50
2018-12-31T14:23:30.004Z,16.53
2018-12-31T14:25:56.030Z,16.93
2018-12-31T14:28:23.160Z,17.83
2018-12-31T14:30:49.205Z,16.20
2018-12-31T14:33:16.506Z,18.10
2018-12-31T14:35:45.912Z,18.00
2018-12-31T14:38:10.749Z,17.17
2018-12-31T14:40:38.319Z,17.97
2018-12-31T14:43:04.464Z,18.73
2018-12-31T14:45:30.687Z,18.47
2018-12-31T14:47:57.264Z,18.10
2018-12-31T14:50:24.421Z,17.90
2018-12-31T14:52:50.501Z,19.23
2018-12-31T14:55:17.570Z,18.67
2018-12-31T14:57:43.879Z,17.40
2018-12-31T15:00:10.420Z,18.20
2018-12-31T15:02:36.820Z,23.97
2018-12-31T15:05:04.106Z,18.73
2018-12-31T15:07:31.242Z,18.17
2018-12-31T15:09:57.304Z,18.03
2018-12-31T15:12:23.437Z,22.67
2018-12-31T15:14:49.418Z,22.00
2018-12-31T15:17:15.744Z,19.70
2018-12-31T15:19:43.124Z,21.00
2018-12-31T15:22:09.143Z,20.20
2018-12-31T15:24:35.178Z,20.10
2018-12-31T15:27:01.275Z,18.93
2018-12-31T15:29:27.343Z,18.20
2018-12-31T15:31:53.412Z,19.67
2018-12-31T15:34:20.656Z,21.62
2018-12-31T15:36:46.659Z,19.30
2018-12-31T15:39:12.747Z,19.00
2018-12-31T15:41:40.235Z,16.67
2018-12-31T15:44:06.283Z,18.90
2018-12-31T15:46:32.378Z,19.20
2018-12-31T15:48:58.762Z,18.43
2018-12-31T15:51:24.785Z,18.43
2018-12-31T15:53:50.805Z,19.70
2018-12-31T15:56:16.831Z,21.60
2018-12-31T15:58:45.006Z,19.83
2018-12-31T16:01:11.531Z,20.03
2018-12-31T16:03:38.225Z,18.43
2018-12-31T16:06:04.283Z,18.80
2018-12-31T16:08:30.379Z,19.17
2018-12-31T16:10:56.485Z,18.43
2018-12-31T16:13:22.670Z,20.60
2018-12-31T16:15:48.711Z,20.27
2018-12-31T16:18:14.838Z,27.90
2018-12-31T16:20:40.989Z,21.70
2018-12-31T16:23:06.993Z,21.87
2018-12-31T16:25:33.146Z,21.90
2018-12-31T16:27:59.155Z,22.27
2018-12-31T16:30:25.182Z,21.57
2018-12-31T16:32:51.288Z,23.20
2018-12-31T16:35:18.568Z,22.40
2018-12-31T16:37:45.707Z,22.60
2018-12-31T16:40:11.712Z,25.27
2018-12-31T16:42:37.845Z,22.37
2018-12-31T16:45:05.266Z,24.33
2018-12-31T16:47:31.530Z,24.30
2018-12-31T16:49:58.279Z,21.80
2018-12-31T16:52:24.281Z,21.23
2018-12-31T16:54:50.350Z,23.70
2018-12-31T16:57:16.410Z,23.17
2018-12-31T16:59:49.843Z,23.70
2018-12-31T17:02:15.859Z,24.90
2018-12-31T17:04:42.203Z,22.67
2018-12-31T17:07:08.625Z,25.50
2018-12-31T17:09:34.677Z,24.47
2018-12-31T17:12:00.801Z,26.87
2018-12-31T17:14:26.829Z,25.10
2018-12-31T17:16:56.744Z,27.33
2018-12-31T17:19:22.799Z,30.07
2018-12-31T17:21:48.822Z,25.10
2018-12-31T17:24:15.016Z,28.83
2018-12-31T17:26:41.034Z,35.97
2018-12-31T17:29:07.066Z,30.50
2018-12-31T17:31:33.020Z,29.60
2018-12-31T17:33:59.078Z,27.70
2018-12-31T17:36:27.168Z,30.27
2018-12-31T17:38:53.516Z,28.90
2018-12-31T17:41:19.747Z,27.60
2018-12-31T17:43:45.897Z,26.83
2018-12-31T17:46:12.312Z,29.07
2018-12-31T17:48:39.758Z,27.77
2018-12-31T17:51:06.352Z,28.10
2018-12-31T17:53:32.396Z,30.90
2018-12-31T17:55:58.510Z,33.90
2018-12-31T17:58:24.520Z,32.17
2018-12-31T18:00:52.816Z,31.20
2018-12-31T18:03:18.820Z,27.87
2018-12-31T18:05:45.333Z,27.67
2018-12-31T18:08:11.392Z,25.67
2018-12-31T18:10:37.439Z,27.33
2018-12-31T18:13:03.487Z,27.10
2018-12-31T18:15:29.515Z,27.93
2018-12-31T18:17:55.564Z,27.00
2018-12-31T18:20:21.766Z,29.17
2018-12-31T18:22:47.895Z,25.60
2018-12-31T18:25:14.008Z,27.23
2018-12-31T18:27:39.971Z,24.97
2018-12-31T18:30:08.082Z,24.83
2018-12-31T18:32:34.036Z,26.87
2018-12-31T18:35:00.087Z,24.13
2018-12-31T18:37:26.444Z,29.23
2018-12-31T18:39:57.967Z,23.83
2018-12-31T18:42:20.356Z,32.50
2018-12-31T18:44:47.598Z,28.23
2018-12-31T18:47:13.649Z,25.33
2018-12-31T18:49:39.695Z,23.40
2018-12-31T18:52:06.202Z,22.80
2018-12-31T18:54:32.243Z,22.90
2018-12-31T18:56:58.345Z,25.20
2018-12-31T18:59:25.749Z,25.70
2018-12-31T19:01:52.823Z,26.83
2018-12-31T19:04:18.952Z,28.90
2018-12-31T19:06:45.100Z,25.80
2018-12-31T19:09:19.290Z,28.10
2018-12-31T19:11:45.308Z,34.73
2018-12-31T19:14:11.631Z,27.47
2018-12-31T19:16:37.794Z,29.00
2018-12-31T19:19:03.824Z,29.50
2018-12-31T19:21:30.448Z,31.97
2018-12-31T19:23:56.477Z,33.80
2018-12-31T19:26:22.604Z,37.90
2018-12-31T19:28:48.585Z,39.33
2018-12-31T19:31:14.655Z,30.57
2018-12-31T19:33:40.663Z,34.30
2018-12-31T19:36:06.711Z,55.10
2018-12-31T19:38:33.171Z,45.23
2018-12-31T19:40:59.265Z,30.87
2018-12-31T19:43:25.280Z,31.73
2018-12-31T19:45:51.371Z,34.53
2018-12-31T19:48:18.439Z,38.13
2018-12-31T19:50:44.470Z,36.40
2018-12-31T19:53:10.521Z,36.07
2018-12-31T19:55:36.561Z,39.40
2018-12-31T19:58:03.682Z,37.10
2018-12-31T20:00:29.814Z,33.60
2018-12-31T20:02:56.479Z,34.90
2018-12-31T20:05:22.560Z,30.80
2018-12-31T20:07:49.731Z,34.00
2018-12-31T20:10:15.768Z,34.33
2018-12-31T20:12:42.820Z,33.17
2018-12-31T20:15:10.349Z,34.70
2018-12-31T20:17:36.458Z,33.37
2018-12-31T20:20:02.792Z,35.93
2018-12-31T20:22:28.831Z,36.80
2018-12-31T20:24:55.287Z,36.90
2018-12-31T20:27:22.825Z,35.57
2018-12-31T20:29:48.848Z,32.60
2018-12-31T20:32:15.948Z,32.30
2018-12-31T20:34:41.968Z,34.60
2018-12-31T20:37:09.015Z,35.17
2018-12-31T20:39:35.000Z,36.23
2018-12-31T20:42:01.520Z,39.80
2018-12-31T20:44:27.604Z,39.27
2018-12-31T20:46:53.670Z,40.50
2018-12-31T20:49:19.716Z,42.87
2018-12-31T20:51:45.902Z,43.40
2018-12-31T20:54:11.904Z,43.70
2018-12-31T20:56:37.968Z,40.03
2018-12-31T20:59:03.977Z,43.43
2018-12-31T21:01:30.068Z,45.33
2018-12-31T21:03:56.098Z,44.53
2018-12-31T21:06:22.225Z,39.60
2018-12-31T21:08:48.297Z,49.37
2018-12-31T21:11:14.428Z,43.80
2018-12-31T21:13:40.427Z,40.33
2018-12-31T21:16:07.023Z,45.80
2018-12-31T21:18:33.170Z,39.47
2018-12-31T21:20:59.197Z,37.17
2018-12-31T21:23:25.251Z,41.13
2018-12-31T21:25:51.228Z,42.80
2018-12-31T21:28:19.546Z,51.33
2018-12-31T21:30:45.604Z,48.20
2018-12-31T21:33:12.627Z,52.67
2018-12-31T21:35:38.668Z,44.87
2018-12-31T21:38:04.830Z,47.50
2018-12-31T21:40:31.036Z,47.37
2018-12-31T21:42:57.077Z,47.10
2018-12-31T21:45:23.073Z,55.17
2018-12-31T21:47:49.159Z,60.60
2018-12-31T21:50:15.682Z,60.03
2018-12-31T21:52:41.807Z,65.20
2018-12-31T21:55:07.926Z,50.60
2018-12-31T21:57:33.993Z,50.80
2018-12-31T22:00:00.011Z,47.40
2018-12-31T22:02:26.095Z,47.40
2018-12-31T22:04:52.450Z,52.47
2018-12-31T22:07:18.464Z,47.90
2018-12-31T22:09:44.493Z,43.30
2018-12-31T22:12:10.557Z,52.77
2018-12-31T22:14:36.685Z,44.60
2018-12-31T22:17:02.890Z,47.70
2018-12-31T22:19:28.863Z,52.67
2018-12-31T22:21:55.059Z,60.63
2018-12-31T22:24:21.139Z,56.50
2018-12-31T22:26:47.162Z,61.90
2018-12-31T22:29:13.129Z,71.00
2018-12-31T22:31:39.196Z,53.43
2018-12-31T22:34:05.218Z,73.07
2018-12-31T22:36:31.223Z,68.80
2018-12-31T22:38:57.286Z,68.77
2018-12-31T22:41:23.251Z,59.83
2018-12-31T22:43:49.317Z,56.73
2018-12-31T22:46:15.305Z,58.50
2018-12-31T22:48:41.400Z,71.47
2018-12-31T22:51:07.381Z,77.13
2018-12-31T22:53:33.810Z,111.73
2018-12-31T22:55:59.770Z,115.50
2018-12-31T22:58:25.789Z,377.07
2018-12-31T23:00:51.780Z,493.03
2018-12-31T23:03:17.839Z,999.90
2018-12-31T23:05:43.919Z,633.23
2018-12-31T23:08:09.999Z,814.07
2018-12-31T23:10:36.007Z,705.20
2018-12-31T23:13:02.115Z,792.23
2018-12-31T23:15:28.453Z,685.97
2018-12-31T23:17:54.481Z,663.10
2018-12-31T23:20:20.671Z,586.63
2018-12-31T23:22:46.707Z,531.00
2018-12-31T23:25:13.000Z,631.27
2018-12-31T23:27:39.037Z,649.60
2018-12-31T23:30:07.519Z,566.77
2018-12-31T23:32:33.507Z,500.53
2018-12-31T23:34:59.719Z,466.90
2018-12-31T23:37:25.825Z,407.30
2018-12-31T23:39:51.812Z,415.07
2018-12-31T23:42:17.891Z,457.93
2018-12-31T23:44:43.935Z,461.97
2018-12-31T23:47:10.028Z,359.90
2018-12-31T23:49:36.041Z,314.30
2018-12-31T23:52:02.035Z,315.97
2018-12-31T23:54:28.083Z,225.40
2018-12-31T23:56:54.388Z,192.40
2018-12-31T23:59:20.600Z,168.00
